EGQL - Leuchars
Distance from station: E 5mi, 14km
Updated: 10/20/2017 2:50am
Mist, Partly cloudy
Mist, Partly cloudy
 Wind from W
Wind: W 7 mph , 11 km/h
Temperature: 54°F , 12°C
Dew Point: 54°F , 12°C
Humidity: 100%
Barometer: 29.5 inHg , 999 hPa
Summary: Mist
Clouds: Partly Cloudy
Visibility: 6 miles , 9 km
Cloud details: Few Clouds 400 ft
Partly Cloudy 7000 ft
2017/10/20 09:50 EGQL 200950Z 27006KT 9000 BR FEW004 SCT070 12/12 Q0999 BLU